sensor_id;sensor_type;location;lat;lon;timestamp;P1;durP1;ratioP1;P2;durP2;ratioP2
15159;SDS011;7680;48.800;9.680;2023-06-04T00:00:29;11.25;;;10.13;;
15159;SDS011;7680;48.800;9.680;2023-06-04T00:03:02;11.60;;;10.50;;
15159;SDS011;7680;48.800;9.680;2023-06-04T00:05:36;10.90;;;9.80;;
15159;SDS011;7680;48.800;9.680;2023-06-04T00:08:09;10.80;;;9.90;;
15159;SDS011;7680;48.800;9.680;2023-06-04T00:10:42;10.35;;;9.35;;
15159;SDS011;7680;48.800;9.680;2023-06-04T00:13:15;10.52;;;9.63;;
15159;SDS011;7680;48.800;9.680;2023-06-04T00:15:50;10.57;;;9.65;;
15159;SDS011;7680;48.800;9.680;2023-06-04T00:18:23;10.80;;;9.80;;
15159;SDS011;7680;48.800;9.680;2023-06-04T00:20:56;10.70;;;9.80;;
15159;SDS011;7680;48.800;9.680;2023-06-04T00:23:30;10.20;;;9.30;;
15159;SDS011;7680;48.800;9.680;2023-06-04T00:26:03;10.00;;;9.02;;
15159;SDS011;7680;48.800;9.680;2023-06-04T00:28:36;9.77;;;8.88;;
15159;SDS011;7680;48.800;9.680;2023-06-04T00:31:11;9.70;;;8.85;;
15159;SDS011;7680;48.800;9.680;2023-06-04T00:33:44;8.95;;;8.20;;
15159;SDS011;7680;48.800;9.680;2023-06-04T00:36:17;9.65;;;8.65;;
15159;SDS011;7680;48.800;9.680;2023-06-04T00:38:50;9.35;;;8.55;;
15159;SDS011;7680;48.800;9.680;2023-06-04T00:41:24;9.25;;;8.35;;
15159;SDS011;7680;48.800;9.680;2023-06-04T00:43:57;9.40;;;8.57;;
15159;SDS011;7680;48.800;9.680;2023-06-04T00:46:34;9.05;;;8.18;;
15159;SDS011;7680;48.800;9.680;2023-06-04T00:49:08;9.10;;;8.32;;
15159;SDS011;7680;48.800;9.680;2023-06-04T00:51:43;10.48;;;9.57;;
15159;SDS011;7680;48.800;9.680;2023-06-04T00:54:16;10.63;;;9.63;;
15159;SDS011;7680;48.800;9.680;2023-06-04T00:56:51;10.20;;;9.30;;
15159;SDS011;7680;48.800;9.680;2023-06-04T00:59:24;10.50;;;9.60;;
15159;SDS011;7680;48.800;9.680;2023-06-04T01:02:00;10.38;;;9.38;;
15159;SDS011;7680;48.800;9.680;2023-06-04T01:04:41;10.65;;;9.65;;
15159;SDS011;7680;48.800;9.680;2023-06-04T01:07:20;10.40;;;8.63;;
15159;SDS011;7680;48.800;9.680;2023-06-04T01:09:54;9.45;;;8.57;;
15159;SDS011;7680;48.800;9.680;2023-06-04T01:12:28;9.13;;;8.23;;
15159;SDS011;7680;48.800;9.680;2023-06-04T01:15:01;8.73;;;7.93;;
15159;SDS011;7680;48.800;9.680;2023-06-04T01:17:38;8.25;;;7.55;;
15159;SDS011;7680;48.800;9.680;2023-06-04T01:20:18;8.73;;;7.85;;
15159;SDS011;7680;48.800;9.680;2023-06-04T01:23:14;8.27;;;7.63;;
15159;SDS011;7680;48.800;9.680;2023-06-04T01:25:58;8.27;;;7.57;;
15159;SDS011;7680;48.800;9.680;2023-06-04T01:28:34;9.20;;;7.10;;
15159;SDS011;7680;48.800;9.680;2023-06-04T01:31:08;8.10;;;7.35;;
15159;SDS011;7680;48.800;9.680;2023-06-04T01:33:43;7.78;;;7.05;;
15159;SDS011;7680;48.800;9.680;2023-06-04T01:36:16;7.95;;;7.10;;
15159;SDS011;7680;48.800;9.680;2023-06-04T01:38:49;7.80;;;7.20;;
15159;SDS011;7680;48.800;9.680;2023-06-04T01:41:23;9.45;;;6.53;;
15159;SDS011;7680;48.800;9.680;2023-06-04T01:43:56;8.10;;;6.82;;
15159;SDS011;7680;48.800;9.680;2023-06-04T01:46:30;7.40;;;6.70;;
15159;SDS011;7680;48.800;9.680;2023-06-04T01:49:04;7.93;;;7.13;;
15159;SDS011;7680;48.800;9.680;2023-06-04T01:51:37;7.15;;;6.65;;
15159;SDS011;7680;48.800;9.680;2023-06-04T01:54:10;7.20;;;6.47;;
15159;SDS011;7680;48.800;9.680;2023-06-04T01:56:44;7.28;;;6.60;;
15159;SDS011;7680;48.800;9.680;2023-06-04T01:59:17;7.57;;;6.68;;
15159;SDS011;7680;48.800;9.680;2023-06-04T02:01:51;8.27;;;7.00;;
15159;SDS011;7680;48.800;9.680;2023-06-04T02:04:26;6.80;;;6.30;;
15159;SDS011;7680;48.800;9.680;2023-06-04T02:06:59;7.72;;;6.93;;
15159;SDS011;7680;48.800;9.680;2023-06-04T02:09:32;7.63;;;6.95;;
15159;SDS011;7680;48.800;9.680;2023-06-04T02:12:06;7.10;;;6.47;;
15159;SDS011;7680;48.800;9.680;2023-06-04T02:14:40;6.85;;;6.22;;
15159;SDS011;7680;48.800;9.680;2023-06-04T02:17:14;6.57;;;6.07;;
15159;SDS011;7680;48.800;9.680;2023-06-04T02:19:49;6.65;;;6.05;;
15159;SDS011;7680;48.800;9.680;2023-06-04T02:22:23;6.97;;;6.38;;
15159;SDS011;7680;48.800;9.680;2023-06-04T02:24:57;7.55;;;6.85;;
15159;SDS011;7680;48.800;9.680;2023-06-04T02:27:30;7.28;;;6.55;;
15159;SDS011;7680;48.800;9.680;2023-06-04T02:30:04;7.35;;;6.25;;
15159;SDS011;7680;48.800;9.680;2023-06-04T02:32:39;6.78;;;6.15;;
15159;SDS011;7680;48.800;9.680;2023-06-04T02:35:13;7.10;;;6.53;;
15159;SDS011;7680;48.800;9.680;2023-06-04T02:37:46;6.43;;;5.93;;
15159;SDS011;7680;48.800;9.680;2023-06-04T02:40:20;6.75;;;6.20;;
15159;SDS011;7680;48.800;9.680;2023-06-04T02:42:53;5.55;;;5.05;;
15159;SDS011;7680;48.800;9.680;2023-06-04T02:45:27;6.35;;;5.53;;
15159;SDS011;7680;48.800;9.680;2023-06-04T02:48:00;5.32;;;4.82;;
15159;SDS011;7680;48.800;9.680;2023-06-04T02:50:35;6.80;;;5.03;;
15159;SDS011;7680;48.800;9.680;2023-06-04T02:53:08;5.38;;;4.88;;
15159;SDS011;7680;48.800;9.680;2023-06-04T02:55:41;5.57;;;5.13;;
15159;SDS011;7680;48.800;9.680;2023-06-04T02:58:14;5.70;;;5.30;;
15159;SDS011;7680;48.800;9.680;2023-06-04T03:00:47;6.25;;;5.65;;
15159;SDS011;7680;48.800;9.680;2023-06-04T03:03:21;6.38;;;5.43;;
15159;SDS011;7680;48.800;9.680;2023-06-04T03:05:56;5.35;;;4.80;;
15159;SDS011;7680;48.800;9.680;2023-06-04T03:08:31;6.50;;;5.43;;
15159;SDS011;7680;48.800;9.680;2023-06-04T03:11:04;4.80;;;4.38;;
15159;SDS011;7680;48.800;9.680;2023-06-04T03:13:38;5.55;;;4.97;;
15159;SDS011;7680;48.800;9.680;2023-06-04T03:16:11;5.40;;;4.90;;
15159;SDS011;7680;48.800;9.680;2023-06-04T03:18:45;5.47;;;5.03;;
15159;SDS011;7680;48.800;9.680;2023-06-04T03:21:19;6.15;;;5.55;;
15159;SDS011;7680;48.800;9.680;2023-06-04T03:23:52;6.32;;;5.70;;
15159;SDS011;7680;48.800;9.680;2023-06-04T03:26:25;6.30;;;5.80;;
15159;SDS011;7680;48.800;9.680;2023-06-04T03:28:59;5.97;;;5.32;;
15159;SDS011;7680;48.800;9.680;2023-06-04T03:31:32;5.88;;;5.38;;
15159;SDS011;7680;48.800;9.680;2023-06-04T03:34:05;5.97;;;5.50;;
15159;SDS011;7680;48.800;9.680;2023-06-04T03:36:40;5.18;;;4.68;;
15159;SDS011;7680;48.800;9.680;2023-06-04T03:39:13;5.55;;;5.05;;
15159;SDS011;7680;48.800;9.680;2023-06-04T03:41:46;5.75;;;5.18;;
15159;SDS011;7680;48.800;9.680;2023-06-04T03:44:20;4.63;;;4.20;;
15159;SDS011;7680;48.800;9.680;2023-06-04T03:46:53;5.88;;;4.93;;
15159;SDS011;7680;48.800;9.680;2023-06-04T03:49:27;4.65;;;4.30;;
15159;SDS011;7680;48.800;9.680;2023-06-04T03:52:01;4.95;;;4.32;;
15159;SDS011;7680;48.800;9.680;2023-06-04T03:54:35;4.70;;;4.30;;
15159;SDS011;7680;48.800;9.680;2023-06-04T03:57:08;4.50;;;4.10;;
15159;SDS011;7680;48.800;9.680;2023-06-04T03:59:41;4.75;;;4.35;;
15159;SDS011;7680;48.800;9.680;2023-06-04T04:02:15;4.43;;;4.13;;
15159;SDS011;7680;48.800;9.680;2023-06-04T04:04:50;4.53;;;4.22;;
15159;SDS011;7680;48.800;9.680;2023-06-04T04:07:27;4.25;;;3.95;;
15159;SDS011;7680;48.800;9.680;2023-06-04T04:10:00;4.93;;;4.43;;
15159;SDS011;7680;48.800;9.680;2023-06-04T04:12:33;5.97;;;4.47;;
15159;SDS011;7680;48.800;9.680;2023-06-04T04:15:06;4.95;;;4.45;;
15159;SDS011;7680;48.800;9.680;2023-06-04T04:17:40;4.13;;;3.78;;
15159;SDS011;7680;48.800;9.680;2023-06-04T04:20:14;4.90;;;4.50;;
15159;SDS011;7680;48.800;9.680;2023-06-04T04:22:50;4.53;;;4.15;;
15159;SDS011;7680;48.800;9.680;2023-06-04T04:25:24;4.80;;;4.03;;
15159;SDS011;7680;48.800;9.680;2023-06-04T04:27:57;4.40;;;3.95;;
15159;SDS011;7680;48.800;9.680;2023-06-04T04:30:32;5.05;;;4.50;;
15159;SDS011;7680;48.800;9.680;2023-06-04T04:33:06;4.97;;;4.05;;
15159;SDS011;7680;48.800;9.680;2023-06-04T04:35:39;4.20;;;3.78;;
15159;SDS011;7680;48.800;9.680;2023-06-04T04:38:14;4.90;;;4.47;;
15159;SDS011;7680;48.800;9.680;2023-06-04T04:40:48;4.30;;;3.90;;
15159;SDS011;7680;48.800;9.680;2023-06-04T04:43:30;5.03;;;4.10;;
15159;SDS011;7680;48.800;9.680;2023-06-04T04:46:05;3.75;;;3.45;;
15159;SDS011;7680;48.800;9.680;2023-06-04T04:48:39;5.00;;;4.25;;
15159;SDS011;7680;48.800;9.680;2023-06-04T04:51:13;4.05;;;3.58;;
15159;SDS011;7680;48.800;9.680;2023-06-04T04:53:48;5.55;;;3.75;;
15159;SDS011;7680;48.800;9.680;2023-06-04T04:56:21;3.90;;;3.60;;
15159;SDS011;7680;48.800;9.680;2023-06-04T04:58:54;3.75;;;3.45;;
15159;SDS011;7680;48.800;9.680;2023-06-04T05:01:28;5.10;;;3.72;;
15159;SDS011;7680;48.800;9.680;2023-06-04T05:04:01;3.92;;;3.55;;
15159;SDS011;7680;48.800;9.680;2023-06-04T05:06:36;4.65;;;3.88;;
15159;SDS011;7680;48.800;9.680;2023-06-04T05:09:11;4.63;;;4.18;;
15159;SDS011;7680;48.800;9.680;2023-06-04T05:11:44;3.42;;;3.20;;
15159;SDS011;7680;48.800;9.680;2023-06-04T05:14:17;3.67;;;3.47;;
15159;SDS011;7680;48.800;9.680;2023-06-04T05:16:50;3.60;;;3.30;;
15159;SDS011;7680;48.800;9.680;2023-06-04T05:19:23;3.95;;;3.65;;
15159;SDS011;7680;48.800;9.680;2023-06-04T05:21:56;4.10;;;3.45;;
15159;SDS011;7680;48.800;9.680;2023-06-04T05:24:31;3.88;;;2.88;;
15159;SDS011;7680;48.800;9.680;2023-06-04T05:27:04;3.42;;;3.13;;
15159;SDS011;7680;48.800;9.680;2023-06-04T05:29:37;4.05;;;3.75;;
15159;SDS011;7680;48.800;9.680;2023-06-04T05:32:11;4.40;;;3.55;;
15159;SDS011;7680;48.800;9.680;2023-06-04T05:34:44;4.47;;;3.63;;
15159;SDS011;7680;48.800;9.680;2023-06-04T05:37:18;4.03;;;3.60;;
15159;SDS011;7680;48.800;9.680;2023-06-04T05:39:52;3.65;;;3.35;;
15159;SDS011;7680;48.800;9.680;2023-06-04T05:42:26;3.88;;;3.38;;
15159;SDS011;7680;48.800;9.680;2023-06-04T05:44:59;4.32;;;3.92;;
15159;SDS011;7680;48.800;9.680;2023-06-04T05:47:33;3.30;;;2.92;;
15159;SDS011;7680;48.800;9.680;2023-06-04T05:50:06;5.25;;;2.90;;
15159;SDS011;7680;48.800;9.680;2023-06-04T05:52:40;3.72;;;3.42;;
15159;SDS011;7680;48.800;9.680;2023-06-04T05:55:15;3.20;;;2.95;;
15159;SDS011;7680;48.800;9.680;2023-06-04T05:57:48;4.38;;;3.00;;
15159;SDS011;7680;48.800;9.680;2023-06-04T06:00:22;4.28;;;3.50;;
15159;SDS011;7680;48.800;9.680;2023-06-04T06:02:56;5.07;;;3.55;;
15159;SDS011;7680;48.800;9.680;2023-06-04T06:05:30;4.45;;;3.42;;
15159;SDS011;7680;48.800;9.680;2023-06-04T06:08:03;3.17;;;2.70;;
15159;SDS011;7680;48.800;9.680;2023-06-04T06:10:38;4.60;;;2.90;;
15159;SDS011;7680;48.800;9.680;2023-06-04T06:13:11;3.38;;;2.90;;
15159;SDS011;7680;48.800;9.680;2023-06-04T06:15:45;3.28;;;2.80;;
15159;SDS011;7680;48.800;9.680;2023-06-04T06:18:20;3.25;;;2.97;;
15159;SDS011;7680;48.800;9.680;2023-06-04T06:20:53;3.90;;;3.00;;
15159;SDS011;7680;48.800;9.680;2023-06-04T06:23:26;2.85;;;2.60;;
15159;SDS011;7680;48.800;9.680;2023-06-04T06:26:01;2.58;;;2.40;;
15159;SDS011;7680;48.800;9.680;2023-06-04T06:28:35;2.90;;;2.70;;
15159;SDS011;7680;48.800;9.680;2023-06-04T06:31:08;3.78;;;2.60;;
15159;SDS011;7680;48.800;9.680;2023-06-04T06:33:41;2.80;;;2.60;;
15159;SDS011;7680;48.800;9.680;2023-06-04T06:36:14;2.95;;;2.42;;
15159;SDS011;7680;48.800;9.680;2023-06-04T06:38:50;4.75;;;2.90;;
15159;SDS011;7680;48.800;9.680;2023-06-04T06:41:25;2.95;;;2.45;;
15159;SDS011;7680;48.800;9.680;2023-06-04T06:43:58;2.70;;;2.47;;
15159;SDS011;7680;48.800;9.680;2023-06-04T06:46:31;3.88;;;2.88;;
15159;SDS011;7680;48.800;9.680;2023-06-04T06:49:04;4.18;;;3.10;;
15159;SDS011;7680;48.800;9.680;2023-06-04T06:51:37;3.25;;;2.67;;
15159;SDS011;7680;48.800;9.680;2023-06-04T06:54:10;2.80;;;2.47;;
15159;SDS011;7680;48.800;9.680;2023-06-04T06:56:49;3.33;;;2.65;;
15159;SDS011;7680;48.800;9.680;2023-06-04T06:59:22;3.22;;;2.92;;
15159;SDS011;7680;48.800;9.680;2023-06-04T07:01:56;3.95;;;3.05;;
15159;SDS011;7680;48.800;9.680;2023-06-04T07:04:29;4.00;;;2.80;;
15159;SDS011;7680;48.800;9.680;2023-06-04T07:07:02;3.15;;;2.80;;
15159;SDS011;7680;48.800;9.680;2023-06-04T07:09:37;4.13;;;2.83;;
15159;SDS011;7680;48.800;9.680;2023-06-04T07:12:11;2.88;;;2.53;;
15159;SDS011;7680;48.800;9.680;2023-06-04T07:14:44;2.95;;;2.75;;
15159;SDS011;7680;48.800;9.680;2023-06-04T07:17:17;2.88;;;2.33;;
15159;SDS011;7680;48.800;9.680;2023-06-04T07:19:50;2.83;;;2.50;;
15159;SDS011;7680;48.800;9.680;2023-06-04T07:22:23;3.17;;;2.80;;
15159;SDS011;7680;48.800;9.680;2023-06-04T07:24:56;2.67;;;2.47;;
15159;SDS011;7680;48.800;9.680;2023-06-04T07:27:31;2.85;;;2.65;;
15159;SDS011;7680;48.800;9.680;2023-06-04T07:30:06;3.13;;;2.83;;
15159;SDS011;7680;48.800;9.680;2023-06-04T07:32:45;4.13;;;2.78;;
15159;SDS011;7680;48.800;9.680;2023-06-04T07:35:19;4.30;;;2.90;;
15159;SDS011;7680;48.800;9.680;2023-06-04T07:37:52;3.20;;;2.80;;
15159;SDS011;7680;48.800;9.680;2023-06-04T07:40:25;2.90;;;2.58;;
15159;SDS011;7680;48.800;9.680;2023-06-04T07:43:00;3.25;;;3.05;;
15159;SDS011;7680;48.800;9.680;2023-06-04T07:45:33;3.15;;;2.85;;
15159;SDS011;7680;48.800;9.680;2023-06-04T07:48:08;3.40;;;3.10;;
15159;SDS011;7680;48.800;9.680;2023-06-04T07:50:42;3.22;;;2.65;;
15159;SDS011;7680;48.800;9.680;2023-06-04T07:53:15;3.45;;;2.60;;
15159;SDS011;7680;48.800;9.680;2023-06-04T07:55:48;3.85;;;2.53;;
15159;SDS011;7680;48.800;9.680;2023-06-04T07:58:24;3.28;;;2.55;;
15159;SDS011;7680;48.800;9.680;2023-06-04T08:00:57;3.63;;;2.80;;
15159;SDS011;7680;48.800;9.680;2023-06-04T08:03:30;2.70;;;2.50;;
15159;SDS011;7680;48.800;9.680;2023-06-04T08:06:04;3.33;;;2.92;;
15159;SDS011;7680;48.800;9.680;2023-06-04T08:08:37;3.20;;;2.90;;
15159;SDS011;7680;48.800;9.680;2023-06-04T08:11:10;3.30;;;2.53;;
15159;SDS011;7680;48.800;9.680;2023-06-04T08:13:45;3.40;;;2.75;;
15159;SDS011;7680;48.800;9.680;2023-06-04T08:16:18;3.70;;;2.70;;
15159;SDS011;7680;48.800;9.680;2023-06-04T08:18:51;3.63;;;2.83;;
15159;SDS011;7680;48.800;9.680;2023-06-04T08:21:27;5.40;;;2.97;;
15159;SDS011;7680;48.800;9.680;2023-06-04T08:24:01;2.95;;;2.67;;
15159;SDS011;7680;48.800;9.680;2023-06-04T08:26:34;2.83;;;2.63;;
15159;SDS011;7680;48.800;9.680;2023-06-04T08:29:09;4.75;;;3.08;;
15159;SDS011;7680;48.800;9.680;2023-06-04T08:31:42;3.67;;;2.67;;
15159;SDS011;7680;48.800;9.680;2023-06-04T08:34:15;4.38;;;2.75;;
15159;SDS011;7680;48.800;9.680;2023-06-04T08:36:48;4.85;;;3.20;;
15159;SDS011;7680;48.800;9.680;2023-06-04T08:39:21;3.88;;;2.83;;
15159;SDS011;7680;48.800;9.680;2023-06-04T08:41:56;3.17;;;2.88;;
15159;SDS011;7680;48.800;9.680;2023-06-04T08:44:34;3.17;;;2.85;;
15159;SDS011;7680;48.800;9.680;2023-06-04T08:47:07;3.33;;;3.00;;
15159;SDS011;7680;48.800;9.680;2023-06-04T08:49:43;3.80;;;2.92;;
15159;SDS011;7680;48.800;9.680;2023-06-04T08:52:19;4.72;;;3.28;;
15159;SDS011;7680;48.800;9.680;2023-06-04T08:54:53;3.28;;;3.03;;
15159;SDS011;7680;48.800;9.680;2023-06-04T08:57:30;4.53;;;2.85;;
15159;SDS011;7680;48.800;9.680;2023-06-04T09:00:05;3.10;;;2.90;;
15159;SDS011;7680;48.800;9.680;2023-06-04T09:02:39;3.22;;;2.92;;
15159;SDS011;7680;48.800;9.680;2023-06-04T09:05:16;4.45;;;3.40;;
15159;SDS011;7680;48.800;9.680;2023-06-04T09:07:54;3.28;;;3.08;;
15159;SDS011;7680;48.800;9.680;2023-06-04T09:10:33;3.55;;;3.08;;
15159;SDS011;7680;48.800;9.680;2023-06-04T09:13:08;3.40;;;3.10;;
15159;SDS011;7680;48.800;9.680;2023-06-04T09:15:44;3.20;;;2.90;;
15159;SDS011;7680;48.800;9.680;2023-06-04T09:18:17;4.18;;;3.53;;
15159;SDS011;7680;48.800;9.680;2023-06-04T09:20:59;3.42;;;2.85;;
15159;SDS011;7680;48.800;9.680;2023-06-04T09:23:34;4.35;;;3.30;;
15159;SDS011;7680;48.800;9.680;2023-06-04T09:26:09;3.90;;;3.60;;
15159;SDS011;7680;48.800;9.680;2023-06-04T09:28:43;3.63;;;3.17;;
15159;SDS011;7680;48.800;9.680;2023-06-04T09:31:19;3.67;;;3.30;;
15159;SDS011;7680;48.800;9.680;2023-06-04T09:33:53;4.22;;;3.83;;
15159;SDS011;7680;48.800;9.680;2023-06-04T09:36:29;3.83;;;3.35;;
15159;SDS011;7680;48.800;9.680;2023-06-04T09:39:03;5.10;;;4.70;;
15159;SDS011;7680;48.800;9.680;2023-06-04T09:41:36;4.38;;;3.95;;
15159;SDS011;7680;48.800;9.680;2023-06-04T09:44:09;3.53;;;3.22;;
15159;SDS011;7680;48.800;9.680;2023-06-04T09:46:54;3.67;;;3.40;;
15159;SDS011;7680;48.800;9.680;2023-06-04T09:49:27;3.67;;;3.38;;
15159;SDS011;7680;48.800;9.680;2023-06-04T09:52:01;3.65;;;3.35;;
15159;SDS011;7680;48.800;9.680;2023-06-04T09:54:35;3.95;;;3.33;;
15159;SDS011;7680;48.800;9.680;2023-06-04T09:57:13;4.90;;;4.20;;
15159;SDS011;7680;48.800;9.680;2023-06-04T09:59:48;5.20;;;3.75;;
15159;SDS011;7680;48.800;9.680;2023-06-04T10:02:25;4.15;;;3.47;;
15159;SDS011;7680;48.800;9.680;2023-06-04T10:05:01;5.28;;;3.75;;
15159;SDS011;7680;48.800;9.680;2023-06-04T10:07:40;4.40;;;4.00;;
15159;SDS011;7680;48.800;9.680;2023-06-04T10:10:16;4.25;;;3.85;;
15159;SDS011;7680;48.800;9.680;2023-06-04T10:12:53;5.65;;;3.28;;
15159;SDS011;7680;48.800;9.680;2023-06-04T10:15:33;5.53;;;4.55;;
15159;SDS011;7680;48.800;9.680;2023-06-04T10:18:10;4.05;;;3.70;;
15159;SDS011;7680;48.800;9.680;2023-06-04T10:20:43;3.78;;;3.47;;
15159;SDS011;7680;48.800;9.680;2023-06-04T10:23:17;4.28;;;3.88;;
15159;SDS011;7680;48.800;9.680;2023-06-04T10:25:53;4.30;;;3.90;;
15159;SDS011;7680;48.800;9.680;2023-06-04T10:28:27;5.22;;;3.78;;
15159;SDS011;7680;48.800;9.680;2023-06-04T10:31:00;4.95;;;4.05;;
15159;SDS011;7680;48.800;9.680;2023-06-04T10:33:36;5.57;;;3.88;;
15159;SDS011;7680;48.800;9.680;2023-06-04T10:36:16;5.32;;;4.05;;
15159;SDS011;7680;48.800;9.680;2023-06-04T10:38:51;3.88;;;3.40;;
15159;SDS011;7680;48.800;9.680;2023-06-04T10:41:26;4.80;;;4.03;;
15159;SDS011;7680;48.800;9.680;2023-06-04T10:44:00;3.53;;;3.17;;
15159;SDS011;7680;48.800;9.680;2023-06-04T10:46:38;4.07;;;3.70;;
15159;SDS011;7680;48.800;9.680;2023-06-04T10:49:13;4.00;;;3.60;;
15159;SDS011;7680;48.800;9.680;2023-06-04T10:51:47;3.70;;;3.42;;
15159;SDS011;7680;48.800;9.680;2023-06-04T10:54:22;4.18;;;3.75;;
15159;SDS011;7680;48.800;9.680;2023-06-04T10:56:57;4.10;;;3.70;;
15159;SDS011;7680;48.800;9.680;2023-06-04T10:59:30;4.18;;;3.60;;
15159;SDS011;7680;48.800;9.680;2023-06-04T11:02:04;4.97;;;4.47;;
15159;SDS011;7680;48.800;9.680;2023-06-04T11:04:39;5.45;;;3.95;;
15159;SDS011;7680;48.800;9.680;2023-06-04T11:07:13;4.38;;;3.88;;
15159;SDS011;7680;48.800;9.680;2023-06-04T11:09:47;5.18;;;3.88;;
15159;SDS011;7680;48.800;9.680;2023-06-04T11:12:21;3.85;;;3.55;;
15159;SDS011;7680;48.800;9.680;2023-06-04T11:14:54;4.65;;;4.10;;
15159;SDS011;7680;48.800;9.680;2023-06-04T11:17:28;3.70;;;3.40;;
15159;SDS011;7680;48.800;9.680;2023-06-04T11:20:03;4.72;;;4.35;;
15159;SDS011;7680;48.800;9.680;2023-06-04T11:22:52;4.80;;;4.40;;
15159;SDS011;7680;48.800;9.680;2023-06-04T11:25:27;4.30;;;3.90;;
15159;SDS011;7680;48.800;9.680;2023-06-04T11:28:01;5.28;;;4.22;;
15159;SDS011;7680;48.800;9.680;2023-06-04T11:30:35;4.68;;;3.85;;
15159;SDS011;7680;48.800;9.680;2023-06-04T11:33:08;4.40;;;4.00;;
15159;SDS011;7680;48.800;9.680;2023-06-04T11:35:42;4.35;;;3.95;;
15159;SDS011;7680;48.800;9.680;2023-06-04T11:38:15;4.65;;;4.15;;
15159;SDS011;7680;48.800;9.680;2023-06-04T11:40:55;4.15;;;3.83;;
15159;SDS011;7680;48.800;9.680;2023-06-04T11:43:30;4.18;;;3.88;;
15159;SDS011;7680;48.800;9.680;2023-06-04T11:46:06;4.25;;;3.75;;
15159;SDS011;7680;48.800;9.680;2023-06-04T11:48:42;4.68;;;4.00;;
15159;SDS011;7680;48.800;9.680;2023-06-04T11:51:17;4.22;;;3.92;;
15159;SDS011;7680;48.800;9.680;2023-06-04T11:53:52;4.80;;;4.00;;
15159;SDS011;7680;48.800;9.680;2023-06-04T11:56:26;4.20;;;3.80;;
15159;SDS011;7680;48.800;9.680;2023-06-04T11:58:59;3.90;;;3.60;;
15159;SDS011;7680;48.800;9.680;2023-06-04T12:01:32;4.28;;;3.85;;
15159;SDS011;7680;48.800;9.680;2023-06-04T12:04:11;4.22;;;3.75;;
15159;SDS011;7680;48.800;9.680;2023-06-04T12:06:52;4.50;;;4.10;;
15159;SDS011;7680;48.800;9.680;2023-06-04T12:09:28;4.55;;;4.10;;
15159;SDS011;7680;48.800;9.680;2023-06-04T12:12:04;4.07;;;3.78;;
15159;SDS011;7680;48.800;9.680;2023-06-04T12:14:38;4.40;;;4.00;;
15159;SDS011;7680;48.800;9.680;2023-06-04T12:17:14;4.00;;;3.60;;
15159;SDS011;7680;48.800;9.680;2023-06-04T12:19:48;4.13;;;3.83;;
15159;SDS011;7680;48.800;9.680;2023-06-04T12:22:24;4.05;;;3.65;;
15159;SDS011;7680;48.800;9.680;2023-06-04T12:24:59;3.70;;;3.40;;
15159;SDS011;7680;48.800;9.680;2023-06-04T12:27:34;4.38;;;3.80;;
15159;SDS011;7680;48.800;9.680;2023-06-04T12:30:08;4.20;;;3.88;;
15159;SDS011;7680;48.800;9.680;2023-06-04T12:32:43;4.28;;;3.85;;
15159;SDS011;7680;48.800;9.680;2023-06-04T12:35:16;6.25;;;4.05;;
15159;SDS011;7680;48.800;9.680;2023-06-04T12:37:51;3.80;;;3.50;;
15159;SDS011;7680;48.800;9.680;2023-06-04T12:40:24;4.72;;;3.72;;
15159;SDS011;7680;48.800;9.680;2023-06-04T12:42:57;3.85;;;3.47;;
15159;SDS011;7680;48.800;9.680;2023-06-04T12:45:30;4.20;;;3.80;;
15159;SDS011;7680;48.800;9.680;2023-06-04T12:48:03;4.05;;;3.72;;
15159;SDS011;7680;48.800;9.680;2023-06-04T12:50:37;4.30;;;3.90;;
15159;SDS011;7680;48.800;9.680;2023-06-04T12:53:11;4.20;;;3.45;;
15159;SDS011;7680;48.800;9.680;2023-06-04T12:55:44;4.32;;;3.80;;
15159;SDS011;7680;48.800;9.680;2023-06-04T12:58:17;3.83;;;3.47;;
15159;SDS011;7680;48.800;9.680;2023-06-04T13:00:50;3.85;;;3.55;;
15159;SDS011;7680;48.800;9.680;2023-06-04T13:03:23;4.30;;;3.90;;
15159;SDS011;7680;48.800;9.680;2023-06-04T13:05:58;4.00;;;3.60;;
15159;SDS011;7680;48.800;9.680;2023-06-04T13:08:32;3.88;;;3.55;;
15159;SDS011;7680;48.800;9.680;2023-06-04T13:11:06;4.32;;;3.90;;
15159;SDS011;7680;48.800;9.680;2023-06-04T13:13:41;4.40;;;4.00;;
15159;SDS011;7680;48.800;9.680;2023-06-04T13:16:14;4.32;;;3.92;;
15159;SDS011;7680;48.800;9.680;2023-06-04T13:18:47;4.30;;;3.90;;
15159;SDS011;7680;48.800;9.680;2023-06-04T13:21:20;4.30;;;4.00;;
15159;SDS011;7680;48.800;9.680;2023-06-04T13:23:55;4.15;;;3.67;;
15159;SDS011;7680;48.800;9.680;2023-06-04T13:26:28;4.50;;;4.05;;
15159;SDS011;7680;48.800;9.680;2023-06-04T13:29:02;4.15;;;3.75;;
15159;SDS011;7680;48.800;9.680;2023-06-04T13:31:35;5.38;;;3.83;;
15159;SDS011;7680;48.800;9.680;2023-06-04T13:34:10;4.28;;;3.88;;
15159;SDS011;7680;48.800;9.680;2023-06-04T13:36:58;4.18;;;3.75;;
15159;SDS011;7680;48.800;9.680;2023-06-04T13:39:33;4.10;;;3.80;;
15159;SDS011;7680;48.800;9.680;2023-06-04T13:42:06;4.07;;;3.70;;
15159;SDS011;7680;48.800;9.680;2023-06-04T13:44:39;3.95;;;3.60;;
15159;SDS011;7680;48.800;9.680;2023-06-04T13:47:13;4.03;;;3.63;;
15159;SDS011;7680;48.800;9.680;2023-06-04T13:49:46;4.55;;;4.15;;
15159;SDS011;7680;48.800;9.680;2023-06-04T13:52:19;4.30;;;3.90;;
15159;SDS011;7680;48.800;9.680;2023-06-04T13:54:54;4.13;;;3.83;;
15159;SDS011;7680;48.800;9.680;2023-06-04T13:57:27;4.07;;;3.67;;
15159;SDS011;7680;48.800;9.680;2023-06-04T14:00:00;3.67;;;3.38;;
15159;SDS011;7680;48.800;9.680;2023-06-04T14:02:33;4.63;;;3.58;;
15159;SDS011;7680;48.800;9.680;2023-06-04T14:05:07;5.28;;;4.03;;
15159;SDS011;7680;48.800;9.680;2023-06-04T14:07:41;4.05;;;3.65;;
15159;SDS011;7680;48.800;9.680;2023-06-04T14:10:16;4.03;;;3.38;;
15159;SDS011;7680;48.800;9.680;2023-06-04T14:12:49;4.03;;;3.63;;
15159;SDS011;7680;48.800;9.680;2023-06-04T14:15:22;4.18;;;3.78;;
15159;SDS011;7680;48.800;9.680;2023-06-04T14:17:55;4.97;;;3.90;;
15159;SDS011;7680;48.800;9.680;2023-06-04T14:20:28;3.88;;;3.58;;
15159;SDS011;7680;48.800;9.680;2023-06-04T14:23:02;4.10;;;3.70;;
15159;SDS011;7680;48.800;9.680;2023-06-04T14:25:37;3.90;;;3.60;;
15159;SDS011;7680;48.800;9.680;2023-06-04T14:28:10;4.28;;;3.88;;
15159;SDS011;7680;48.800;9.680;2023-06-04T14:30:43;4.28;;;3.97;;
15159;SDS011;7680;48.800;9.680;2023-06-04T14:33:16;4.18;;;3.83;;
15159;SDS011;7680;48.800;9.680;2023-06-04T14:35:49;4.15;;;3.75;;
15159;SDS011;7680;48.800;9.680;2023-06-04T14:38:22;4.15;;;3.75;;
15159;SDS011;7680;48.800;9.680;2023-06-04T14:40:57;4.22;;;3.78;;
15159;SDS011;7680;48.800;9.680;2023-06-04T14:43:31;4.28;;;3.90;;
15159;SDS011;7680;48.800;9.680;2023-06-04T14:46:04;4.22;;;3.85;;
15159;SDS011;7680;48.800;9.680;2023-06-04T14:48:37;4.03;;;3.70;;
15159;SDS011;7680;48.800;9.680;2023-06-04T14:51:11;5.03;;;3.70;;
15159;SDS011;7680;48.800;9.680;2023-06-04T14:53:44;4.22;;;3.83;;
15159;SDS011;7680;48.800;9.680;2023-06-04T14:56:19;4.10;;;3.80;;
15159;SDS011;7680;48.800;9.680;2023-06-04T14:58:53;4.60;;;4.20;;
15159;SDS011;7680;48.800;9.680;2023-06-04T15:01:26;4.43;;;4.03;;
15159;SDS011;7680;48.800;9.680;2023-06-04T15:04:00;4.15;;;3.85;;
15159;SDS011;7680;48.800;9.680;2023-06-04T15:06:33;5.07;;;4.28;;
15159;SDS011;7680;48.800;9.680;2023-06-04T15:09:07;4.32;;;3.92;;
15159;SDS011;7680;48.800;9.680;2023-06-04T15:11:41;4.10;;;3.80;;
15159;SDS011;7680;48.800;9.680;2023-06-04T15:14:14;4.30;;;4.00;;
15159;SDS011;7680;48.800;9.680;2023-06-04T15:16:47;4.20;;;3.78;;
15159;SDS011;7680;48.800;9.680;2023-06-04T15:19:20;4.43;;;3.97;;
15159;SDS011;7680;48.800;9.680;2023-06-04T15:21:54;4.70;;;4.30;;
15159;SDS011;7680;48.800;9.680;2023-06-04T15:24:27;5.45;;;4.70;;
15159;SDS011;7680;48.800;9.680;2023-06-04T15:27:02;4.50;;;4.20;;
15159;SDS011;7680;48.800;9.680;2023-06-04T15:29:36;4.80;;;4.47;;
15159;SDS011;7680;48.800;9.680;2023-06-04T15:32:09;5.40;;;4.03;;
15159;SDS011;7680;48.800;9.680;2023-06-04T15:34:43;6.07;;;4.60;;
15159;SDS011;7680;48.800;9.680;2023-06-04T15:37:16;5.10;;;4.70;;
15159;SDS011;7680;48.800;9.680;2023-06-04T15:39:49;4.85;;;4.50;;
15159;SDS011;7680;48.800;9.680;2023-06-04T15:42:23;4.93;;;4.53;;